createdAt,value
2018-07-12T00:02:15.951Z,99.90
2018-07-12T00:04:43.322Z,99.90
2018-07-12T00:07:10.974Z,99.90
2018-07-12T00:09:38.609Z,99.90
2018-07-12T00:12:05.967Z,99.90
2018-07-12T00:14:33.619Z,99.90
2018-07-12T00:17:01.002Z,99.90
2018-07-12T00:19:28.596Z,99.90
2018-07-12T00:21:56.231Z,99.90
2018-07-12T00:24:23.578Z,99.90
2018-07-12T00:26:51.319Z,99.90
2018-07-12T00:29:18.657Z,99.90
2018-07-12T00:31:46.016Z,99.90
2018-07-12T00:34:13.631Z,99.90
2018-07-12T00:36:40.983Z,99.90
2018-07-12T00:39:08.324Z,99.90
2018-07-12T00:41:36.233Z,99.90
2018-07-12T00:44:03.567Z,99.90
2018-07-12T00:46:30.928Z,99.90
2018-07-12T00:48:58.263Z,99.90
2018-07-12T00:51:25.622Z,99.90
2018-07-12T00:53:52.987Z,99.90
2018-07-12T00:56:20.324Z,99.90
2018-07-12T00:58:47.658Z,99.90
2018-07-12T01:01:15.285Z,99.90
2018-07-12T01:03:42.622Z,99.90
2018-07-12T01:06:10.371Z,99.90
2018-07-12T01:08:37.749Z,99.90
2018-07-12T01:11:05.106Z,99.90
2018-07-12T01:13:32.460Z,99.90
2018-07-12T01:16:00.086Z,99.90
2018-07-12T01:18:27.725Z,99.90
2018-07-12T01:20:55.109Z,99.90
2018-07-12T01:25:56.297Z,99.90
2018-07-12T01:28:23.648Z,99.90
2018-07-12T01:30:51.023Z,99.90
2018-07-12T01:33:18.363Z,99.90
2018-07-12T01:35:45.724Z,99.90
2018-07-12T01:38:13.058Z,99.90
2018-07-12T01:40:40.426Z,99.90
2018-07-12T01:43:07.778Z,99.90
2018-07-12T01:45:35.122Z,99.90
2018-07-12T01:48:02.441Z,99.90
2018-07-12T01:50:29.784Z,99.90
2018-07-12T01:52:57.441Z,99.90
2018-07-12T01:55:25.190Z,99.90
2018-07-12T01:57:52.512Z,99.90
2018-07-12T02:00:19.857Z,99.90
2018-07-12T02:02:47.263Z,99.90
2018-07-12T02:05:14.607Z,99.90
2018-07-12T02:07:41.936Z,99.90
2018-07-12T02:10:09.280Z,99.90
2018-07-12T02:12:36.592Z,99.90
2018-07-12T02:15:03.916Z,99.90
2018-07-12T02:17:31.255Z,99.90
2018-07-12T02:19:58.580Z,99.90
2018-07-12T02:22:25.961Z,99.90
2018-07-12T02:24:53.651Z,99.90
2018-07-12T02:27:20.990Z,99.90
2018-07-12T02:29:48.293Z,99.90
2018-07-12T02:32:15.658Z,99.90
2018-07-12T02:34:42.978Z,99.90
2018-07-12T02:37:10.315Z,99.90
2018-07-12T02:39:37.636Z,99.90
2018-07-12T02:42:05.288Z,99.90
2018-07-12T02:44:32.603Z,99.90
2018-07-12T02:46:59.938Z,99.90
2018-07-12T02:49:27.265Z,99.90
2018-07-12T02:51:54.598Z,99.90
2018-07-12T02:54:21.915Z,99.90
2018-07-12T02:56:49.263Z,99.90
2018-07-12T02:59:16.831Z,99.90
2018-07-12T03:01:44.176Z,99.90
2018-07-12T03:04:11.503Z,99.90
2018-07-12T03:06:38.849Z,99.90
2018-07-12T03:09:07.271Z,99.90
2018-07-12T03:11:34.954Z,99.90
2018-07-12T03:14:02.644Z,99.90
2018-07-12T03:16:30.043Z,99.90
2018-07-12T03:18:57.403Z,99.90
2018-07-12T03:21:24.738Z,99.90
2018-07-12T03:23:52.054Z,99.90
2018-07-12T03:26:19.423Z,99.90
2018-07-12T03:28:46.730Z,99.90
2018-07-12T03:31:14.107Z,99.90
2018-07-12T03:33:41.435Z,99.90
2018-07-12T03:36:08.780Z,99.90
2018-07-12T03:38:36.106Z,99.90
2018-07-12T03:41:03.452Z,99.90
2018-07-12T03:43:30.784Z,99.90
2018-07-12T03:45:58.132Z,99.90
2018-07-12T03:48:25.442Z,99.90
2018-07-12T03:50:52.783Z,99.90
2018-07-12T03:53:20.104Z,99.90
2018-07-12T03:55:47.440Z,99.90
2018-07-12T03:58:14.755Z,99.90
2018-07-12T04:00:42.097Z,99.90
2018-07-12T04:03:09.417Z,99.90
2018-07-12T04:05:36.771Z,99.90
2018-07-12T04:08:04.095Z,99.90
2018-07-12T04:10:31.420Z,99.90
2018-07-12T04:12:58.756Z,99.90
2018-07-12T04:15:26.067Z,99.90
2018-07-12T04:17:53.405Z,99.90
2018-07-12T04:20:20.732Z,99.90
2018-07-12T04:22:48.075Z,99.90
2018-07-12T04:25:15.420Z,99.90
2018-07-12T04:27:42.763Z,99.90
2018-07-12T04:30:10.355Z,99.90
2018-07-12T04:32:37.694Z,99.90
2018-07-12T04:35:05.009Z,99.90
2018-07-12T04:37:32.384Z,99.90
2018-07-12T04:39:59.712Z,99.90
2018-07-12T04:42:27.049Z,99.90
2018-07-12T04:44:54.714Z,99.90
2018-07-12T04:47:22.055Z,99.90
2018-07-12T04:49:49.427Z,99.90
2018-07-12T04:52:16.766Z,99.90
2018-07-12T04:54:44.079Z,99.90
2018-07-12T04:57:11.424Z,99.90
2018-07-12T04:59:38.756Z,99.90
2018-07-12T05:02:06.104Z,99.90
2018-07-12T05:04:33.426Z,99.90
2018-07-12T05:07:00.774Z,99.90
2018-07-12T05:09:28.078Z,99.90
2018-07-12T05:11:55.418Z,99.90
2018-07-12T05:14:22.772Z,99.90
2018-07-12T05:16:50.103Z,99.90
2018-07-12T05:19:17.741Z,99.90
2018-07-12T05:21:45.084Z,99.90
2018-07-12T05:24:12.406Z,99.90
2018-07-12T05:26:39.741Z,99.90
2018-07-12T05:29:07.320Z,99.90
2018-07-12T05:31:34.656Z,99.90
2018-07-12T05:34:01.978Z,99.90
2018-07-12T05:37:05.083Z,99.90
2018-07-12T05:39:33.499Z,99.90
2018-07-12T05:42:01.936Z,99.90
2018-07-12T05:44:30.393Z,99.90
2018-07-12T05:46:58.848Z,99.90
2018-07-12T05:49:27.272Z,99.90
2018-07-12T05:51:55.714Z,99.90
2018-07-12T05:54:24.135Z,99.90
2018-07-12T05:56:52.587Z,99.90
2018-07-12T05:59:20.995Z,99.90
2018-07-12T06:02:00.744Z,99.90
2018-07-12T06:04:29.162Z,99.90
2018-07-12T06:06:57.606Z,99.90
2018-07-12T06:09:26.048Z,99.90
2018-07-12T06:11:54.551Z,99.90
2018-07-12T06:14:22.979Z,99.90
2018-07-12T06:16:51.409Z,99.90
2018-07-12T06:19:19.831Z,99.90
2018-07-12T06:21:48.274Z,99.90
2018-07-12T06:24:16.861Z,99.90
2018-07-12T06:26:45.353Z,99.90
2018-07-12T06:29:13.770Z,99.90
2018-07-12T06:31:42.356Z,99.90
2018-07-12T06:34:10.795Z,99.90
2018-07-12T06:36:39.231Z,99.90
2018-07-12T06:39:09.215Z,99.90
2018-07-12T06:41:37.674Z,99.90
2018-07-12T06:44:06.134Z,99.90
2018-07-12T06:46:34.622Z,99.90
2018-07-12T06:49:03.191Z,99.90
2018-07-12T06:51:31.606Z,99.90
2018-07-12T06:54:00.036Z,99.90
2018-07-12T06:56:28.450Z,99.90
2018-07-12T06:58:56.900Z,99.90
2018-07-12T07:01:25.338Z,99.90
2018-07-12T07:03:53.750Z,99.90
2018-07-12T07:06:22.246Z,99.90
2018-07-12T07:08:50.963Z,99.90
2018-07-12T07:11:19.379Z,99.90
2018-07-12T07:13:47.853Z,99.90
2018-07-12T07:16:16.303Z,99.90
2018-07-12T07:18:45.031Z,99.90
2018-07-12T07:21:13.480Z,99.90
2018-07-12T07:23:42.367Z,99.90
2018-07-12T07:26:10.829Z,99.90
2018-07-12T07:28:39.580Z,99.90
2018-07-12T07:31:08.047Z,99.90
2018-07-12T07:33:36.522Z,99.90
2018-07-12T07:36:05.495Z,99.90
2018-07-12T07:38:33.922Z,99.90
2018-07-12T07:41:02.340Z,99.90
2018-07-12T07:43:31.008Z,99.90
2018-07-12T07:45:59.419Z,99.90
2018-07-12T07:48:27.854Z,99.90
2018-07-12T07:50:56.291Z,99.90
2018-07-12T07:53:24.747Z,99.90
2018-07-12T07:55:53.486Z,99.90
2018-07-12T07:58:21.914Z,99.90
2018-07-12T08:00:50.691Z,99.90
2018-07-12T08:03:19.149Z,99.90
2018-07-12T08:05:47.854Z,99.90
2018-07-12T08:08:16.738Z,99.90
2018-07-12T08:10:45.171Z,99.90
2018-07-12T08:13:13.616Z,99.90
2018-07-12T08:15:42.065Z,99.90
2018-07-12T08:18:10.578Z,99.90
2018-07-12T08:20:39.019Z,99.90
2018-07-12T08:23:07.495Z,99.90
2018-07-12T08:25:35.947Z,99.90
2018-07-12T08:28:15.759Z,99.90
2018-07-12T08:30:44.194Z,99.90
2018-07-12T08:33:12.702Z,99.90
2018-07-12T08:35:41.118Z,99.90
2018-07-12T08:38:09.958Z,99.90
2018-07-12T08:40:38.481Z,99.90
2018-07-12T08:43:06.924Z,99.90
2018-07-12T08:45:35.349Z,99.90
2018-07-12T08:48:03.854Z,99.90
2018-07-12T08:50:32.307Z,99.90
2018-07-12T08:53:00.809Z,99.90
2018-07-12T08:55:29.229Z,99.90
2018-07-12T08:57:57.706Z,99.90
2018-07-12T09:00:26.162Z,99.90
2018-07-12T09:02:54.797Z,99.90
2018-07-12T09:05:23.145Z,99.90
2018-07-12T09:07:51.740Z,99.90
2018-07-12T09:10:20.173Z,99.90
2018-07-12T09:12:48.643Z,99.90
2018-07-12T09:15:17.097Z,99.90
2018-07-12T09:17:45.523Z,99.90
2018-07-12T09:20:13.960Z,99.90
2018-07-12T09:22:42.373Z,99.90
2018-07-12T09:25:10.808Z,99.90
2018-07-12T09:27:39.200Z,99.90
2018-07-12T09:30:07.662Z,99.90
2018-07-12T09:32:36.067Z,99.90
2018-07-12T09:35:04.532Z,99.90
2018-07-12T09:37:32.939Z,99.90
2018-07-12T09:40:01.351Z,99.90
2018-07-12T09:42:29.755Z,99.90
2018-07-12T09:44:58.180Z,99.90
2018-07-12T09:47:26.626Z,99.90
2018-07-12T09:49:55.038Z,99.90
2018-07-12T09:52:28.736Z,99.90
2018-07-12T09:54:57.315Z,99.90
2018-07-12T09:57:37.179Z,99.90
2018-07-12T10:00:05.952Z,99.90
2018-07-12T10:02:39.778Z,99.90
2018-07-12T10:05:13.530Z,99.90
2018-07-12T10:07:47.134Z,99.90
2018-07-12T10:10:15.588Z,99.90
2018-07-12T10:12:49.138Z,99.90
2018-07-12T10:15:22.873Z,99.90
2018-07-12T10:17:55.504Z,99.90
2018-07-12T10:20:23.961Z,99.90
2018-07-12T10:22:52.638Z,99.90
2018-07-12T10:25:21.099Z,99.90
2018-07-12T10:27:49.506Z,99.90
2018-07-12T10:30:17.951Z,99.90
2018-07-12T10:32:46.372Z,99.90
2018-07-12T10:35:14.831Z,99.90
2018-07-12T10:37:43.256Z,99.90
2018-07-12T10:40:11.691Z,99.90
2018-07-12T10:42:40.109Z,99.90
2018-07-12T10:47:36.679Z,99.90
2018-07-12T10:50:05.202Z,99.90
2018-07-12T10:52:33.625Z,99.90
2018-07-12T10:55:02.078Z,99.90
2018-07-12T10:57:30.523Z,99.90
2018-07-12T10:59:59.017Z,99.90
2018-07-12T11:02:27.684Z,99.90
2018-07-12T11:04:56.139Z,99.90
2018-07-12T11:07:24.723Z,99.90
2018-07-12T11:09:53.246Z,99.90
2018-07-12T11:12:21.602Z,99.90
2018-07-12T11:14:50.049Z,99.90
2018-07-12T11:17:18.478Z,99.90
2018-07-12T11:19:47.201Z,99.90
2018-07-12T11:22:15.605Z,99.90
2018-07-12T11:24:44.023Z,99.90
2018-07-12T11:27:12.622Z,99.90
2018-07-12T11:29:53.717Z,99.90
2018-07-12T11:32:22.125Z,99.90
2018-07-12T11:34:51.070Z,99.90
2018-07-12T11:37:25.774Z,99.90
2018-07-12T11:39:54.262Z,99.90
2018-07-12T11:42:22.717Z,99.90
2018-07-12T11:44:51.198Z,99.90
2018-07-12T11:47:20.203Z,99.90
2018-07-12T11:49:48.642Z,99.90
2018-07-12T11:52:17.111Z,99.90
2018-07-12T11:54:45.594Z,99.90
2018-07-12T11:57:14.226Z,99.90
2018-07-12T11:59:42.734Z,99.40
2018-07-12T12:02:11.522Z,99.30
2018-07-12T12:04:39.996Z,99.90
2018-07-12T12:07:08.488Z,99.60
2018-07-12T12:09:36.936Z,98.50
2018-07-12T12:12:05.700Z,99.20
2018-07-12T12:14:34.852Z,98.70
2018-07-12T12:17:03.376Z,99.10
2018-07-12T12:19:32.159Z,98.10
2018-07-12T12:22:01.183Z,97.10
2018-07-12T12:24:29.900Z,97.40
2018-07-12T12:26:58.666Z,96.60
2018-07-12T12:29:27.079Z,96.30
2018-07-12T12:31:55.847Z,95.60
2018-07-12T12:34:24.276Z,95.80
2018-07-12T12:36:52.874Z,95.90
2018-07-12T12:39:21.299Z,96.10
2018-07-12T12:41:49.815Z,95.20
2018-07-12T12:44:18.195Z,95.70
2018-07-12T12:46:46.650Z,95.90
2018-07-12T12:49:15.098Z,95.60
2018-07-12T12:51:43.538Z,95.10
2018-07-12T12:56:40.135Z,93.80
2018-07-12T12:59:08.838Z,94.80
2018-07-12T13:01:37.270Z,95.50
2018-07-12T13:04:05.919Z,97.10
2018-07-12T13:06:34.378Z,97.40
2018-07-12T13:09:02.845Z,97.60
2018-07-12T13:11:31.294Z,97.10
2018-07-12T13:13:59.721Z,96.00
2018-07-12T13:16:28.158Z,94.70
2018-07-12T13:18:56.883Z,95.80
2018-07-12T13:21:25.320Z,94.50
2018-07-12T13:23:53.734Z,95.30
2018-07-12T13:26:22.203Z,95.10
2018-07-12T13:28:50.623Z,95.70
2018-07-12T13:31:19.057Z,93.80
2018-07-12T13:33:47.457Z,93.80
2018-07-12T13:36:15.874Z,96.50
2018-07-12T13:38:44.278Z,93.80
2018-07-12T13:41:12.731Z,91.70
2018-07-12T13:43:41.211Z,91.20
2018-07-12T13:46:09.695Z,92.20
2018-07-12T13:48:38.103Z,91.90
2018-07-12T13:51:06.714Z,91.10
2018-07-12T13:56:03.514Z,90.60
2018-07-12T13:58:31.939Z,93.20
2018-07-12T14:01:00.638Z,91.30
2018-07-12T14:03:29.048Z,90.60
2018-07-12T14:05:57.731Z,89.60
2018-07-12T14:08:32.999Z,90.10
2018-07-12T14:11:01.414Z,89.30
2018-07-12T14:13:29.929Z,90.00
2018-07-12T14:15:58.375Z,88.10
2018-07-12T14:18:27.186Z,87.50
2018-07-12T14:20:55.619Z,89.80
2018-07-12T14:23:24.020Z,89.90
2018-07-12T14:25:52.471Z,87.10
2018-07-12T14:28:20.870Z,85.50
2018-07-12T14:30:49.315Z,88.50
2018-07-12T14:33:18.091Z,88.00
2018-07-12T14:35:46.848Z,89.80
2018-07-12T14:38:15.566Z,90.00
2018-07-12T14:40:43.983Z,88.30
2018-07-12T14:43:12.756Z,88.80
2018-07-12T14:45:41.190Z,89.00
2018-07-12T14:48:09.607Z,89.90
2018-07-12T14:50:38.053Z,90.30
2018-07-12T14:53:06.474Z,89.40
2018-07-12T14:55:34.886Z,87.90
2018-07-12T14:58:03.327Z,87.10
2018-07-12T15:00:31.738Z,85.70
2018-07-12T15:03:00.162Z,87.10
2018-07-12T15:05:28.550Z,87.70
2018-07-12T15:10:25.080Z,83.40
2018-07-12T15:12:53.511Z,83.00
2018-07-12T15:15:21.961Z,84.60
2018-07-12T15:17:50.473Z,84.30
2018-07-12T15:20:18.899Z,81.80
2018-07-12T15:25:15.503Z,82.00
2018-07-12T15:27:43.998Z,79.90
2018-07-12T15:30:12.516Z,80.10
2018-07-12T15:35:09.533Z,77.60
2018-07-12T15:37:37.981Z,77.90
2018-07-12T15:40:06.726Z,78.40
2018-07-12T15:42:35.563Z,75.50
2018-07-12T15:45:04.058Z,74.30
2018-07-12T15:47:32.558Z,75.50
2018-07-12T15:50:01.008Z,73.80
2018-07-12T15:52:29.538Z,74.50
2018-07-12T15:54:57.939Z,72.90
2018-07-12T15:57:26.399Z,72.30
2018-07-12T15:59:54.835Z,72.00
2018-07-12T16:02:23.294Z,69.70
2018-07-12T16:04:51.714Z,70.10
2018-07-12T16:07:20.171Z,68.80
2018-07-12T16:09:48.608Z,72.30
2018-07-12T16:12:17.098Z,74.80
2018-07-12T16:14:45.535Z,73.90
2018-07-12T16:17:13.981Z,74.80
2018-07-12T16:19:42.377Z,75.70
2018-07-12T16:22:10.800Z,76.70
2018-07-12T16:24:39.567Z,76.80
2018-07-12T16:27:08.004Z,78.60
2018-07-12T16:29:36.474Z,78.30
2018-07-12T16:32:04.920Z,77.30
2018-07-12T16:34:33.331Z,78.80
2018-07-12T16:37:01.850Z,79.50
2018-07-12T16:41:58.473Z,80.60
2018-07-12T16:44:26.842Z,81.50
2018-07-12T16:46:55.296Z,82.00
2018-07-12T16:49:23.707Z,82.00
2018-07-12T16:51:52.185Z,84.20
2018-07-12T16:54:20.720Z,83.30
2018-07-12T16:56:49.160Z,83.90
2018-07-12T16:59:17.586Z,83.50
2018-07-12T17:01:46.292Z,85.00
2018-07-12T17:04:14.694Z,84.80
2018-07-12T17:06:43.146Z,85.00
2018-07-12T17:09:11.643Z,84.80
2018-07-12T17:11:40.300Z,84.20
2018-07-12T17:14:09.100Z,84.30
2018-07-12T17:16:37.815Z,84.40
2018-07-12T17:19:06.336Z,83.20
2018-07-12T17:21:34.835Z,84.40
2018-07-12T17:24:03.326Z,83.80
2018-07-12T17:26:31.749Z,84.90
2018-07-12T17:29:00.202Z,82.50
2018-07-12T17:31:28.646Z,83.20
2018-07-12T17:33:57.111Z,83.20
2018-07-12T17:36:25.535Z,83.70
2018-07-12T17:38:54.012Z,84.40
2018-07-12T17:41:22.503Z,84.80
2018-07-12T17:43:50.958Z,84.70
2018-07-12T17:46:19.442Z,85.30
2018-07-12T17:48:47.922Z,86.00
2018-07-12T17:51:16.360Z,86.20
2018-07-12T17:53:44.851Z,85.70
2018-07-12T17:56:13.322Z,85.40
2018-07-12T17:58:41.800Z,86.50
2018-07-12T18:01:10.398Z,87.50
2018-07-12T18:03:38.875Z,87.70
2018-07-12T18:06:07.453Z,87.60
2018-07-12T18:08:36.306Z,87.50
2018-07-12T18:11:04.818Z,88.40
2018-07-12T18:13:33.287Z,89.60
2018-07-12T18:16:01.716Z,90.00
2018-07-12T18:18:30.173Z,90.30
2018-07-12T18:20:58.587Z,90.40
2018-07-12T18:23:27.391Z,90.90
2018-07-12T18:25:56.087Z,90.70
2018-07-12T18:28:24.569Z,90.80
2018-07-12T18:30:52.989Z,91.00
2018-07-12T18:35:49.550Z,91.10
2018-07-12T18:38:17.974Z,92.40
2018-07-12T18:40:46.451Z,94.20
2018-07-12T18:43:15.105Z,95.90
2018-07-12T18:45:43.546Z,98.00
2018-07-12T18:48:12.003Z,99.90
2018-07-12T18:50:40.514Z,99.90
2018-07-12T18:53:09.315Z,99.90
2018-07-12T18:55:37.761Z,99.90
2018-07-12T18:58:06.385Z,99.90
2018-07-12T19:00:34.827Z,99.90
2018-07-12T19:03:03.897Z,99.90
2018-07-12T19:05:32.307Z,99.90
2018-07-12T19:08:01.236Z,99.90
2018-07-12T19:10:29.955Z,99.90
2018-07-12T19:12:58.703Z,99.90
2018-07-12T19:15:27.243Z,99.90
2018-07-12T19:17:55.639Z,99.90
2018-07-12T19:20:24.057Z,99.90
2018-07-12T19:22:52.491Z,99.90
2018-07-12T19:25:20.903Z,99.90
2018-07-12T19:27:49.359Z,99.90
2018-07-12T19:30:18.041Z,99.90
2018-07-12T19:32:46.495Z,99.90
2018-07-12T19:35:15.041Z,99.90
2018-07-12T19:37:43.432Z,99.90
2018-07-12T19:40:11.951Z,99.90
2018-07-12T19:42:40.350Z,99.90
2018-07-12T19:45:08.811Z,99.90
2018-07-12T19:47:37.224Z,99.90
2018-07-12T19:50:05.671Z,99.90
2018-07-12T19:52:34.103Z,99.90
2018-07-12T19:55:02.541Z,99.90
2018-07-12T19:57:30.949Z,99.90
2018-07-12T19:59:59.427Z,99.90
2018-07-12T20:02:27.858Z,99.90
2018-07-12T20:04:56.315Z,99.90
2018-07-12T20:07:26.525Z,99.90
2018-07-12T20:09:55.027Z,99.90
2018-07-12T20:12:23.447Z,99.90
2018-07-12T20:14:51.910Z,99.90
2018-07-12T20:17:20.385Z,99.90
2018-07-12T20:19:48.819Z,99.90
2018-07-12T20:22:19.223Z,99.90
2018-07-12T20:24:48.334Z,99.90
2018-07-12T20:27:16.826Z,99.90
2018-07-12T20:29:45.598Z,99.90
2018-07-12T20:32:14.431Z,99.90
2018-07-12T20:34:43.106Z,99.90
2018-07-12T20:37:11.547Z,99.90
2018-07-12T20:39:40.031Z,99.90
2018-07-12T20:42:08.427Z,99.90
2018-07-12T20:44:36.871Z,99.90
2018-07-12T20:47:05.803Z,99.90
2018-07-12T20:49:34.255Z,99.90
2018-07-12T20:52:02.687Z,99.90
2018-07-12T20:54:31.197Z,99.90
2018-07-12T20:56:59.638Z,99.90
2018-07-12T20:59:28.079Z,99.90
2018-07-12T21:01:56.530Z,99.90
2018-07-12T21:04:24.956Z,99.90
2018-07-12T21:06:53.694Z,99.90
2018-07-12T21:09:22.119Z,99.90
2018-07-12T21:11:50.509Z,99.90
2018-07-12T21:14:19.274Z,99.90
2018-07-12T21:16:47.751Z,99.90
2018-07-12T21:19:16.541Z,99.90
2018-07-12T21:21:44.960Z,99.90
2018-07-12T21:24:13.658Z,99.90
2018-07-12T21:26:42.067Z,99.90
2018-07-12T21:29:10.822Z,99.90
2018-07-12T21:31:39.282Z,99.90
2018-07-12T21:34:07.758Z,99.90
2018-07-12T21:36:36.202Z,99.90
2018-07-12T21:39:07.390Z,99.90
2018-07-12T21:41:35.805Z,99.90
2018-07-12T21:44:04.275Z,99.90
2018-07-12T21:46:32.723Z,99.90
2018-07-12T21:49:01.217Z,99.90
2018-07-12T21:51:29.653Z,99.90
2018-07-12T21:53:58.101Z,99.90
2018-07-12T21:56:26.592Z,99.90
2018-07-12T21:58:55.029Z,99.90
2018-07-12T22:01:23.486Z,99.90
2018-07-12T22:03:51.970Z,99.90
2018-07-12T22:06:33.401Z,99.90
2018-07-12T22:09:01.854Z,99.90
2018-07-12T22:11:30.278Z,99.90
2018-07-12T22:13:58.787Z,99.90
2018-07-12T22:16:27.178Z,99.90
2018-07-12T22:18:55.900Z,99.90
2018-07-12T22:21:24.339Z,99.90
2018-07-12T22:23:52.767Z,99.90
2018-07-12T22:26:21.227Z,99.90
2018-07-12T22:28:49.910Z,99.90
2018-07-12T22:31:18.340Z,99.90
2018-07-12T22:33:47.014Z,99.90
2018-07-12T22:36:15.427Z,99.90
2018-07-12T22:38:43.839Z,99.90
2018-07-12T22:41:12.275Z,99.90
2018-07-12T22:43:40.670Z,99.90
2018-07-12T22:46:09.116Z,99.90
2018-07-12T22:48:37.595Z,99.90
2018-07-12T22:51:06.152Z,99.90
2018-07-12T22:53:34.543Z,99.90
2018-07-12T22:56:02.962Z,99.90
2018-07-12T22:58:31.367Z,99.90
2018-07-12T23:00:59.903Z,99.90
2018-07-12T23:03:28.615Z,99.90
2018-07-12T23:05:57.047Z,99.90
2018-07-12T23:08:25.447Z,99.90
2018-07-12T23:10:53.894Z,99.90
2018-07-12T23:13:22.310Z,99.90
2018-07-12T23:15:50.834Z,99.90
2018-07-12T23:18:19.257Z,99.90
2018-07-12T23:20:48.544Z,99.90
2018-07-12T23:23:16.975Z,99.90
2018-07-12T23:25:45.428Z,99.90
2018-07-12T23:28:13.841Z,99.90
2018-07-12T23:30:42.560Z,99.90
2018-07-12T23:33:10.985Z,99.90
2018-07-12T23:35:39.451Z,99.90
2018-07-12T23:38:07.878Z,99.90
2018-07-12T23:40:36.340Z,99.90
2018-07-12T23:43:05.062Z,99.90
2018-07-12T23:45:33.880Z,99.90
2018-07-12T23:48:02.298Z,99.90
2018-07-12T23:50:30.764Z,99.90
2018-07-12T23:52:59.207Z,99.90
2018-07-12T23:55:27.994Z,99.90
2018-07-12T23:57:56.418Z,99.90
